Time;durP1;ratioP1;P1;durP2;ratioP2;P2;SDS_P1;SDS_P2;PMS_P1;PMS_P2;Temp;Humidity;BMP_temperature;BMP_pressure;BME280_temperature;BME280_humidity;BME280_pressure;Samples;Min_cycle;Max_cycle;Signal;HPM_P1;HPM_P2
2022/06/08 00:01:44;;;;;;;5.40;5.00;;;15.30;96.20;;;;;;5044917;28;20428;-68
2022/06/08 00:04:13;;;;;;;4.85;4.55;;;15.30;96.20;;;;;;5042763;28;20443;-68
2022/06/08 00:06:40;;;;;;;5.72;5.30;;;15.30;96.20;;;;;;5047302;28;20524;-68
2022/06/08 00:09:08;;;;;;;5.45;4.97;;;15.20;96.20;;;;;;5047958;28;20815;-68
2022/06/08 00:11:35;;;;;;;6.65;6.03;;;15.20;96.20;;;;;;5044150;28;20437;-68
2022/06/08 00:14:02;;;;;;;5.93;5.37;;;15.20;96.20;;;;;;5048644;28;20587;-67
2022/06/08 00:16:29;;;;;;;5.47;5.07;;;15.20;96.20;;;;;;5044414;28;20799;-67
2022/06/08 00:18:56;;;;;;;6.00;5.50;;;15.20;96.10;;;;;;5042200;28;20538;-67
2022/06/08 00:21:23;;;;;;;5.40;5.00;;;15.20;96.10;;;;;;5050815;28;20919;-67
2022/06/08 00:23:50;;;;;;;5.40;4.90;;;15.20;96.10;;;;;;5042401;28;20469;-67
2022/06/08 00:26:18;;;;;;;5.50;5.10;;;15.20;96.20;;;;;;5046029;28;20426;-67
2022/06/08 00:28:45;;;;;;;5.10;4.70;;;15.20;96.10;;;;;;5046280;28;20433;-66
2022/06/08 00:31:12;;;;;;;5.27;4.67;;;15.30;96.10;;;;;;5057187;28;20461;-65
2022/06/08 00:33:39;;;;;;;5.60;3.80;;;15.30;96.10;;;;;;5052797;28;20461;-67
2022/06/08 00:36:07;;;;;;;4.53;4.13;;;15.30;96.00;;;;;;5050536;28;20513;-67
2022/06/08 00:38:35;;;;;;;5.07;4.50;;;15.30;96.00;;;;;;5041505;28;20425;-68
2022/06/08 00:41:16;;;;;;;4.40;4.00;;;15.20;96.30;;;;;;5042369;28;20430;-67
2022/06/08 00:43:45;;;;;;;5.07;4.68;;;15.20;95.70;;;;;;5045166;28;20433;-67
2022/06/08 00:46:13;;;;;;;4.35;3.95;;;15.20;95.80;;;;;;5050810;28;20433;-66
2022/06/08 00:48:49;;;;;;;4.93;4.53;;;15.20;95.70;;;;;;5046885;28;20950;-67
2022/06/08 00:51:16;;;;;;;4.80;4.40;;;15.20;95.70;;;;;;5041140;28;20437;-67
2022/06/08 00:53:49;;;;;;;4.60;4.20;;;15.20;95.80;;;;;;5039235;28;20536;-67
2022/06/08 00:56:19;;;;;;;3.93;3.63;;;15.20;95.80;;;;;;5038324;28;20437;-67
2022/06/08 00:58:47;;;;;;;4.50;4.10;;;15.20;95.80;;;;;;5046409;28;20425;-67
2022/06/08 01:01:14;;;;;;;4.00;3.58;;;15.20;95.80;;;;;;5049475;28;20440;-67
2022/06/08 01:03:41;;;;;;;3.72;3.17;;;15.20;95.80;;;;;;5048470;28;20436;-68
2022/06/08 01:06:15;;;;;;;3.35;3.05;;;15.30;95.70;;;;;;5050063;28;20418;-67
2022/06/08 01:08:46;;;;;;;3.70;3.00;;;15.30;95.60;;;;;;5043651;28;20870;-67
2022/06/08 01:11:17;;;;;;;3.50;3.20;;;15.30;95.50;;;;;;5048708;28;20427;-66
2022/06/08 01:13:44;;;;;;;3.72;3.40;;;15.30;95.30;;;;;;5047227;28;20425;-67
2022/06/08 01:16:13;;;;;;;3.47;2.97;;;15.30;95.20;;;;;;5046851;28;20448;-67
2022/06/08 01:18:41;;;;;;;3.67;3.35;;;15.20;95.20;;;;;;5049650;28;20932;-67
2022/06/08 01:21:47;;;;;;;3.53;3.22;;;15.20;95.10;;;;;;5045782;28;20425;-68
2022/06/08 01:24:15;;;;;;;3.72;3.33;;;15.20;95.30;;;;;;5041489;28;20468;-67
2022/06/08 01:26:46;;;;;;;3.50;3.20;;;15.20;95.40;;;;;;5046897;28;20425;-67
2022/06/08 01:29:19;;;;;;;4.07;3.50;;;15.20;95.40;;;;;;5041066;28;20780;-66
2022/06/08 01:31:57;;;;;;;3.90;3.20;;;15.20;95.50;;;;;;5049507;28;20894;-67
2022/06/08 01:34:32;;;;;;;3.40;3.10;;;15.20;95.60;;;;;;5049499;28;20417;-67
2022/06/08 01:37:16;;;;;;;4.30;3.40;;;15.20;95.60;;;;;;5048033;28;20468;-67
2022/06/08 01:39:57;;;;;;;3.55;3.30;;;15.20;95.60;;;;;;5037112;28;20435;-67
2022/06/08 01:42:49;;;;;;;6.40;3.65;;;15.20;95.50;;;;;;5045771;28;20903;-69
2022/06/08 01:45:33;;;;;;;4.30;3.47;;;15.20;95.40;;;;;;5041959;28;20433;-67
2022/06/08 01:48:31;;;;;;;3.80;3.40;;;15.10;95.40;;;;;;5047963;28;20503;-67
2022/06/08 01:51:13;;;;;;;3.47;3.10;;;15.10;95.40;;;;;;5040169;28;20436;-67
2022/06/08 01:53:51;;;;;;;3.60;2.88;;;15.00;95.50;;;;;;5047004;28;21301;-67
2022/06/08 01:56:25;;;;;;;3.53;3.22;;;15.00;95.50;;;;;;5043595;28;20953;-66
2022/06/08 01:59:02;;;;;;;3.75;3.45;;;15.00;95.50;;;;;;5047740;28;20807;-66
2022/06/08 02:01:37;;;;;;;4.00;3.60;;;14.90;96.00;;;;;;5047997;28;20429;-68
2022/06/08 02:04:10;;;;;;;4.10;3.67;;;14.90;95.60;;;;;;5048618;28;20418;-67
2022/06/08 02:06:46;;;;;;;4.90;3.30;;;14.90;95.70;;;;;;5047971;28;20429;-67
2022/06/08 02:09:21;;;;;;;3.67;3.38;;;14.80;95.70;;;;;;5046529;28;20433;-67
2022/06/08 02:11:55;;;;;;;3.95;3.47;;;14.80;95.60;;;;;;5048640;28;20440;-68
2022/06/08 02:14:29;;;;;;;4.30;3.90;;;14.80;95.70;;;;;;5045390;28;20955;-67
2022/06/08 02:17:05;;;;;;;4.30;3.80;;;14.70;95.70;;;;;;5048451;28;20432;-67
2022/06/08 02:19:36;;;;;;;4.90;3.70;;;14.70;95.80;;;;;;5044211;28;20528;-68
2022/06/08 02:22:07;;;;;;;4.30;3.90;;;14.70;95.80;;;;;;5044272;28;20436;-68
2022/06/08 02:24:39;;;;;;;5.88;4.00;;;14.60;95.90;;;;;;5048058;28;20429;-66
2022/06/08 02:27:13;;;;;;;4.90;4.47;;;14.60;96.00;;;;;;5046137;28;20433;-69
2022/06/08 02:29:44;;;;;;;4.97;4.20;;;14.60;96.00;;;;;;5041551;28;20435;-67
2022/06/08 02:34:57;;;;;;;4.80;4.38;;;14.50;96.10;;;;;;5044713;28;20421;-68
2022/06/08 02:37:29;;;;;;;4.45;4.05;;;14.50;96.10;;;;;;5041199;28;20435;-67
2022/06/08 02:40:02;;;;;;;4.43;3.85;;;14.60;96.20;;;;;;5041656;28;20426;-68
2022/06/08 02:42:31;;;;;;;4.32;3.92;;;14.60;96.00;;;;;;5037865;28;20442;-67
2022/06/08 02:45:01;;;;;;;5.97;3.90;;;14.60;95.90;;;;;;5044641;28;20428;-66
2022/06/08 02:47:30;;;;;;;4.63;3.40;;;14.60;95.80;;;;;;5044930;28;20436;-67
2022/06/08 02:49:59;;;;;;;3.70;3.40;;;14.50;95.70;;;;;;5048599;28;20460;-67
2022/06/08 02:52:30;;;;;;;5.25;3.97;;;14.50;95.40;;;;;;5035163;28;20434;-67
2022/06/08 02:54:58;;;;;;;4.35;3.60;;;14.50;95.80;;;;;;5047085;28;20416;-66
2022/06/08 02:57:34;;;;;;;3.90;3.60;;;14.40;95.50;;;;;;5044188;28;20453;-67
2022/06/08 03:00:06;;;;;;;3.92;3.53;;;14.40;95.40;;;;;;5050101;28;21083;-67
2022/06/08 03:02:40;;;;;;;4.35;3.90;;;14.40;95.50;;;;;;5048281;28;20448;-68
2022/06/08 03:05:10;;;;;;;4.18;3.80;;;14.40;95.60;;;;;;5048727;28;20783;-69
2022/06/08 03:07:41;;;;;;;4.35;3.90;;;14.40;95.60;;;;;;5043105;28;20413;-68
2022/06/08 03:10:14;;;;;;;4.38;3.60;;;14.40;95.50;;;;;;5038695;28;20842;-67
2022/06/08 03:12:44;;;;;;;4.13;3.83;;;14.40;95.60;;;;;;5040498;28;20441;-68
2022/06/08 03:15:15;;;;;;;4.65;3.75;;;14.40;95.60;;;;;;5030112;28;20431;-67
2022/06/08 03:17:43;;;;;;;4.05;3.75;;;14.40;95.60;;;;;;5043531;28;20437;-68
2022/06/08 03:20:12;;;;;;;4.30;3.90;;;14.40;95.60;;;;;;5042151;28;20834;-66
2022/06/08 03:22:39;;;;;;;4.80;4.40;;;14.40;95.60;;;;;;5045974;28;20440;-67
2022/06/08 03:25:07;;;;;;;4.63;3.83;;;14.40;95.60;;;;;;5048573;28;20435;-67
2022/06/08 03:27:37;;;;;;;4.95;4.03;;;14.40;95.60;;;;;;5039920;28;20435;-68
2022/06/08 03:30:05;;;;;;;5.13;4.30;;;14.40;95.70;;;;;;5040231;28;20432;-68
2022/06/08 03:32:32;;;;;;;4.38;3.97;;;14.40;95.70;;;;;;5044864;28;20436;-68
2022/06/08 03:34:58;;;;;;;4.32;3.92;;;14.50;95.60;;;;;;5045922;28;20930;-68
2022/06/08 03:37:25;;;;;;;4.53;4.10;;;14.50;95.70;;;;;;5041537;28;20433;-68
2022/06/08 03:39:52;;;;;;;4.63;4.23;;;14.50;96.20;;;;;;5046862;28;20433;-69
2022/06/08 03:42:19;;;;;;;4.70;4.20;;;14.50;95.90;;;;;;5043638;28;20432;-68
2022/06/08 03:44:47;;;;;;;3.80;3.50;;;14.50;96.30;;;;;;5044049;28;20433;-68
2022/06/08 03:47:20;;;;;;;5.53;3.70;;;14.60;95.80;;;;;;5044217;28;20429;-68
2022/06/08 03:49:47;;;;;;;3.90;3.60;;;14.60;95.70;;;;;;5046769;28;20508;-68
2022/06/08 03:52:18;;;;;;;3.85;3.13;;;14.70;95.70;;;;;;5047046;28;20429;-68
2022/06/08 03:54:50;;;;;;;3.10;2.90;;;14.70;95.50;;;;;;5040934;28;20442;-68
2022/06/08 03:57:18;;;;;;;4.00;3.28;;;14.70;95.30;;;;;;5041022;28;20458;-68
2022/06/08 03:59:48;;;;;;;3.30;3.00;;;14.80;95.20;;;;;;5046444;28;20452;-68
2022/06/08 04:02:15;;;;;;;3.55;3.25;;;14.80;95.00;;;;;;5042358;28;20425;-68
2022/06/08 04:04:42;;;;;;;3.80;3.50;;;14.80;94.80;;;;;;5042683;28;20425;-68
2022/06/08 04:07:10;;;;;;;3.90;3.50;;;14.80;94.80;;;;;;5038963;28;20442;-68
2022/06/08 04:09:38;;;;;;;4.67;3.33;;;14.90;94.80;;;;;;5044977;28;21167;-66
2022/06/08 04:12:05;;;;;;;3.70;3.40;;;14.80;95.20;;;;;;5050667;28;20429;-67
2022/06/08 04:14:32;;;;;;;3.63;2.80;;;14.90;94.60;;;;;;5042858;28;20444;-67
2022/06/08 04:17:01;;;;;;;4.47;3.00;;;14.90;94.30;;;;;;5042541;28;20531;-68
2022/06/08 04:19:28;;;;;;;4.15;3.10;;;14.90;94.10;;;;;;5047557;28;20874;-68
2022/06/08 04:21:55;;;;;;;3.75;3.30;;;14.90;93.80;;;;;;5047207;28;20417;-68
2022/06/08 04:24:22;;;;;;;3.05;2.85;;;14.90;94.30;;;;;;5041549;28;20433;-67
2022/06/08 04:26:50;;;;;;;4.30;3.17;;;14.90;93.80;;;;;;5045880;28;20428;-68
2022/06/08 04:29:17;;;;;;;3.13;2.83;;;14.80;93.70;;;;;;5049633;28;20436;-68
2022/06/08 04:31:44;;;;;;;3.33;3.03;;;14.90;93.90;;;;;;5043735;28;20437;-69
2022/06/08 04:34:14;;;;;;;3.00;2.70;;;14.90;93.90;;;;;;5043235;28;20437;-69
2022/06/08 04:36:42;;;;;;;3.50;3.20;;;14.90;93.90;;;;;;5038662;28;20438;-69
2022/06/08 04:39:12;;;;;;;4.38;3.22;;;14.80;93.90;;;;;;5042299;28;21202;-69
2022/06/08 04:41:39;;;;;;;2.85;2.65;;;14.90;93.50;;;;;;5053215;28;20830;-70
2022/06/08 04:44:07;;;;;;;3.67;3.07;;;14.90;93.80;;;;;;5043833;28;21001;-68
2022/06/08 04:46:33;;;;;;;5.00;2.90;;;14.80;93.80;;;;;;5036945;28;20907;-69
2022/06/08 04:49:00;;;;;;;4.33;3.40;;;14.90;93.70;;;;;;5047487;28;20432;-68
2022/06/08 04:51:29;;;;;;;5.25;3.53;;;14.90;93.30;;;;;;5042126;28;20435;-68
2022/06/08 04:53:55;;;;;;;6.70;4.03;;;15.00;93.40;;;;;;5053409;28;20440;-68
2022/06/08 04:56:22;;;;;;;5.97;3.72;;;15.00;93.50;;;;;;5043773;28;20432;-68
2022/06/08 04:58:49;;;;;;;5.17;3.40;;;15.10;93.50;;;;;;5048851;28;20428;-68
2022/06/08 05:01:16;;;;;;;6.20;3.77;;;15.10;93.30;;;;;;5046932;28;20454;-69
2022/06/08 05:03:43;;;;;;;5.17;2.80;;;15.10;93.00;;;;;;5046128;28;20429;-69
2022/06/08 05:06:10;;;;;;;3.65;3.08;;;15.20;92.70;;;;;;5052161;28;20495;-69
2022/06/08 05:08:40;;;;;;;5.07;3.13;;;15.20;92.80;;;;;;5051101;28;21091;-68
2022/06/08 05:11:08;;;;;;;4.07;2.90;;;15.20;93.00;;;;;;5056773;28;20424;-69
2022/06/08 05:13:36;;;;;;;3.20;2.90;;;15.30;92.50;;;;;;5056018;28;21037;-68
2022/06/08 05:16:04;;;;;;;3.88;3.05;;;15.30;92.70;;;;;;5044420;28;20949;-68
2022/06/08 05:18:31;;;;;;;3.65;3.20;;;15.40;92.80;;;;;;5039470;28;20947;-68
2022/06/08 05:20:58;;;;;;;4.00;2.50;;;15.50;92.50;;;;;;5051721;28;20933;-68
2022/06/08 05:23:27;;;;;;;3.60;2.90;;;15.60;92.00;;;;;;5042200;28;20432;-68
2022/06/08 05:25:56;;;;;;;2.50;2.30;;;15.60;92.60;;;;;;5046320;28;20432;-70
2022/06/08 05:28:24;;;;;;;3.05;2.72;;;15.60;92.00;;;;;;5057825;28;20428;-69
2022/06/08 05:30:51;;;;;;;3.20;2.67;;;15.60;91.90;;;;;;5040484;28;20430;-69
2022/06/08 05:33:18;;;;;;;2.72;2.53;;;15.70;91.90;;;;;;5041124;28;20426;-69
2022/06/08 05:35:45;;;;;;;2.60;2.40;;;15.70;91.90;;;;;;5057830;28;20432;-70
2022/06/08 05:38:12;;;;;;;4.20;2.50;;;15.70;91.80;;;;;;5057969;28;20898;-68
2022/06/08 05:40:39;;;;;;;3.60;2.60;;;15.70;91.80;;;;;;5060937;28;20432;-71
2022/06/08 05:43:11;;;;;;;3.30;2.50;;;15.80;91.60;;;;;;5090903;28;20411;-69
2022/06/08 05:45:39;;;;;;;4.68;2.92;;;15.80;91.40;;;;;;5076856;28;20476;-70
2022/06/08 05:48:07;;;;;;;2.90;2.60;;;15.90;91.70;;;;;;5063755;28;20419;-70
2022/06/08 05:50:35;;;;;;;3.72;2.67;;;15.90;91.00;;;;;;5060230;28;20437;-70
2022/06/08 05:53:03;;;;;;;3.40;3.10;;;15.90;91.20;;;;;;5050186;28;20440;-70
2022/06/08 05:55:30;;;;;;;3.90;2.70;;;16.00;91.30;;;;;;5053287;28;20425;-68
2022/06/08 05:57:56;;;;;;;4.03;3.10;;;16.00;91.20;;;;;;5072337;28;20427;-69
2022/06/08 06:00:28;;;;;;;3.20;2.90;;;16.10;90.90;;;;;;5063917;28;20431;-69
2022/06/08 06:02:55;;;;;;;3.20;3.00;;;16.10;91.30;;;;;;5066984;28;20774;-70
2022/06/08 06:05:24;;;;;;;4.95;3.10;;;16.20;90.80;;;;;;5044977;28;20463;-70
2022/06/08 06:07:51;;;;;;;4.40;2.90;;;16.30;90.60;;;;;;5049736;28;20421;-70
2022/06/08 06:10:19;;;;;;;4.05;3.00;;;16.30;90.60;;;;;;5074638;22;20451;-71
2022/06/08 06:12:46;;;;;;;5.20;2.60;;;16.30;90.10;;;;;;5062979;28;20427;-72
2022/06/08 06:15:14;;;;;;;3.72;2.72;;;16.40;90.00;;;;;;5064919;28;20454;-71
2022/06/08 06:17:42;;;;;;;2.88;2.30;;;16.40;90.00;;;;;;5069723;28;20407;-71
2022/06/08 06:20:10;;;;;;;3.07;2.60;;;16.40;90.00;;;;;;5066685;28;20435;-72
2022/06/08 06:22:37;;;;;;;3.50;2.10;;;16.50;89.90;;;;;;5052574;28;20427;-71
2022/06/08 06:25:05;;;;;;;2.70;2.50;;;16.50;89.40;;;;;;5041428;28;20423;-71
2022/06/08 06:27:32;;;;;;;3.40;2.40;;;16.60;89.00;;;;;;5058860;28;20479;-71
2022/06/08 06:30:00;;;;;;;2.97;2.25;;;16.60;89.50;;;;;;5055269;28;20439;-72
2022/06/08 06:32:29;;;;;;;3.67;2.70;;;16.60;89.50;;;;;;5053409;28;20954;-71
2022/06/08 06:34:58;;;;;;;2.60;2.33;;;16.70;89.90;;;;;;5060019;28;20473;-71
2022/06/08 06:37:26;;;;;;;2.40;2.20;;;16.80;89.00;;;;;;5037746;28;20448;-71
2022/06/08 06:39:53;;;;;;;3.95;2.40;;;16.80;88.80;;;;;;5040900;28;20454;-71
2022/06/08 06:42:23;;;;;;;2.75;2.22;;;16.80;89.40;;;;;;5049258;28;20432;-70
2022/06/08 06:44:51;;;;;;;2.95;2.38;;;16.90;89.20;;;;;;5058583;28;20459;-70
2022/06/08 06:47:18;;;;;;;2.97;2.22;;;17.00;88.90;;;;;;5049926;28;20425;-71
2022/06/08 06:49:46;;;;;;;2.63;2.00;;;17.00;88.50;;;;;;5061701;28;20766;-70
2022/06/08 06:52:16;;;;;;;2.30;2.10;;;17.10;88.50;;;;;;5045811;28;20480;-71
2022/06/08 06:54:43;;;;;;;3.00;2.20;;;17.20;88.70;;;;;;5051218;28;20460;-71
2022/06/08 06:57:10;;;;;;;4.20;2.40;;;17.40;87.60;;;;;;5048920;28;20443;-71
2022/06/08 06:59:38;;;;;;;2.50;2.00;;;17.50;86.30;;;;;;5048616;28;20437;-71
2022/06/08 07:02:10;;;;;;;2.80;2.00;;;17.60;86.50;;;;;;5043207;28;20567;-72
2022/06/08 07:04:37;;;;;;;3.72;2.00;;;17.70;85.40;;;;;;5041508;28;20428;-70
2022/06/08 07:07:04;;;;;;;2.85;2.00;;;17.80;84.30;;;;;;5037420;28;20444;-71
2022/06/08 07:09:33;;;;;;;2.78;2.10;;;17.70;84.30;;;;;;5053776;28;21139;-71
2022/06/08 07:12:00;;;;;;;2.70;2.10;;;17.70;84.40;;;;;;5063815;28;20411;-70
2022/06/08 07:14:27;;;;;;;3.00;2.58;;;17.70;84.90;;;;;;5055288;28;20508;-71
2022/06/08 07:16:54;;;;;;;2.92;2.00;;;17.70;85.00;;;;;;5038224;28;20441;-71
2022/06/08 07:19:22;;;;;;;2.90;2.20;;;17.70;84.70;;;;;;5044648;28;20429;-71
2022/06/08 07:21:49;;;;;;;2.20;1.95;;;17.70;84.80;;;;;;5047249;28;20417;-71
2022/06/08 07:24:19;;;;;;;2.70;1.83;;;17.70;84.00;;;;;;5059835;28;21007;-71
2022/06/08 07:26:47;;;;;;;4.27;2.20;;;17.60;85.30;;;;;;5064943;28;20433;-71
2022/06/08 07:29:15;;;;;;;3.50;2.00;;;17.60;85.40;;;;;;5047715;28;20426;-71
2022/06/08 07:31:42;;;;;;;3.60;1.98;;;17.60;85.30;;;;;;5047002;28;20433;-71
2022/06/08 07:34:11;;;;;;;2.10;1.75;;;17.70;84.60;;;;;;5046438;28;20433;-71
2022/06/08 07:36:38;;;;;;;2.95;1.88;;;17.70;85.30;;;;;;5056701;28;20503;-71
2022/06/08 07:39:05;;;;;;;2.63;1.90;;;17.80;84.10;;;;;;5044152;28;20493;-71
2022/06/08 07:41:32;;;;;;;2.10;1.80;;;17.80;84.50;;;;;;5045074;28;20864;-71
2022/06/08 07:44:00;;;;;;;2.40;2.00;;;17.80;84.10;;;;;;5045190;28;20433;-71
2022/06/08 07:46:29;;;;;;;3.60;1.80;;;17.80;83.60;;;;;;5044985;28;20488;-71
2022/06/08 07:51:40;;;;;;;2.88;2.30;;;17.90;83.60;;;;;;5045379;28;20554;-72
2022/06/08 07:54:07;;;;;;;2.10;1.90;;;17.90;84.00;;;;;;5055470;28;20526;-71
2022/06/08 07:56:34;;;;;;;3.97;1.92;;;18.00;83.90;;;;;;5057627;28;20420;-72
2022/06/08 07:59:03;;;;;;;3.00;1.90;;;18.10;84.00;;;;;;5045490;28;20430;-73
2022/06/08 08:01:30;;;;;;;3.50;1.80;;;18.10;82.80;;;;;;5042106;28;20461;-70
2022/06/08 08:03:56;;;;;;;2.58;1.80;;;18.20;82.40;;;;;;5044515;28;20959;-72
2022/06/08 08:06:23;;;;;;;2.05;1.77;;;18.40;82.80;;;;;;5055091;28;20439;-72
2022/06/08 08:08:50;;;;;;;2.50;1.90;;;18.60;81.00;;;;;;5049944;28;20421;-72
2022/06/08 08:11:17;;;;;;;1.80;1.30;;;18.90;79.70;;;;;;5052744;28;20808;-72
2022/06/08 08:13:43;;;;;;;1.60;1.50;;;19.20;78.00;;;;;;5057281;28;20415;-72
2022/06/08 08:16:13;;;;;;;2.67;1.50;;;19.30;78.50;;;;;;5049744;28;20433;-72
2022/06/08 08:18:39;;;;;;;2.63;1.67;;;19.40;78.20;;;;;;5043969;28;20464;-72
2022/06/08 08:21:06;;;;;;;2.20;1.50;;;19.60;76.80;;;;;;5037200;28;20435;-72
2022/06/08 08:23:33;;;;;;;2.50;1.90;;;19.80;76.30;;;;;;5044183;28;20424;-72
2022/06/08 08:26:00;;;;;;;1.70;1.60;;;20.10;74.70;;;;;;5045045;28;20858;-71
2022/06/08 08:28:26;;;;;;;2.55;1.63;;;20.20;74.30;;;;;;5047497;28;20438;-72
2022/06/08 08:30:53;;;;;;;2.40;1.60;;;20.30;73.30;;;;;;5051620;28;20448;-72
2022/06/08 08:33:21;;;;;;;2.90;1.33;;;20.40;72.10;;;;;;5047739;28;21222;-72
2022/06/08 08:35:50;;;;;;;3.35;1.30;;;20.50;72.30;;;;;;5053132;28;20415;-71
2022/06/08 08:38:17;;;;;;;3.13;1.48;;;20.80;69.60;;;;;;5060596;28;20416;-71
2022/06/08 08:40:47;;;;;;;2.28;1.20;;;21.10;68.70;;;;;;5058863;28;20480;-71
2022/06/08 08:43:18;;;;;;;3.22;1.50;;;21.20;64.20;;;;;;5047728;28;20517;-71
2022/06/08 08:45:54;;;;;;;2.13;1.40;;;21.20;64.50;;;;;;5047592;28;20432;-71
2022/06/08 08:48:27;;;;;;;2.03;1.30;;;21.40;65.50;;;;;;5050036;28;20741;-71
2022/06/08 08:51:02;;;;;;;3.17;1.30;;;21.60;63.30;;;;;;5056339;28;20814;-70
2022/06/08 08:53:36;;;;;;;1.60;1.30;;;22.10;62.80;;;;;;5051380;28;20858;-71
2022/06/08 08:56:13;;;;;;;3.45;1.90;;;22.40;59.10;;;;;;5067263;28;20460;-70
2022/06/08 08:58:43;;;;;;;2.75;1.50;;;22.40;59.80;;;;;;5059071;28;20429;-70
2022/06/08 09:01:16;;;;;;;2.30;1.30;;;22.90;59.30;;;;;;5051115;28;20608;-71
2022/06/08 09:03:46;;;;;;;3.03;1.20;;;23.10;56.30;;;;;;5051407;28;20487;-71
2022/06/08 09:06:16;;;;;;;4.90;1.50;;;23.10;56.70;;;;;;5055972;28;20854;-71
2022/06/08 09:08:44;;;;;;;3.10;1.20;;;23.00;54.70;;;;;;5066755;28;20462;-71
2022/06/08 09:11:16;;;;;;;4.00;1.20;;;22.60;57.80;;;;;;5065418;28;20980;-71
2022/06/08 09:13:47;;;;;;;2.70;1.40;;;22.60;56.80;;;;;;5050760;28;20456;-71
2022/06/08 09:16:35;;;;;;;1.75;1.30;;;22.30;58.60;;;;;;5046553;28;20437;-71
2022/06/08 09:19:29;;;;;;;3.58;1.40;;;22.30;59.70;;;;;;5039219;28;20425;-71
2022/06/08 09:22:00;;;;;;;4.65;1.60;;;22.50;58.80;;;;;;5049362;28;20428;-70
2022/06/08 09:24:32;;;;;;;2.28;1.30;;;22.50;59.80;;;;;;5042032;28;20427;-70
2022/06/08 09:27:13;;;;;;;1.80;1.10;;;22.50;59.00;;;;;;5060744;28;20450;-70
2022/06/08 09:29:50;;;;;;;2.47;1.33;;;22.60;57.50;;;;;;5048918;28;20429;-70
2022/06/08 09:32:27;;;;;;;3.17;1.30;;;22.30;57.40;;;;;;5055037;28;20488;-70
2022/06/08 09:34:58;;;;;;;2.72;1.20;;;22.00;58.00;;;;;;5050249;28;20467;-70
2022/06/08 09:37:26;;;;;;;2.92;1.30;;;22.00;58.90;;;;;;5047788;28;20513;-72
2022/06/08 09:39:55;;;;;;;3.78;1.33;;;22.00;60.70;;;;;;5052072;28;20498;-72
2022/06/08 09:42:43;;;;;;;3.05;1.30;;;22.20;60.10;;;;;;5064690;28;20419;-70
2022/06/08 09:45:28;;;;;;;2.22;1.55;;;22.50;59.10;;;;;;5049261;28;20909;-72
2022/06/08 09:53:55;;;;;;;3.00;1.50;;;22.30;57.00;;;;;;5038180;28;20436;-72
2022/06/08 09:56:30;;;;;;;2.40;1.40;;;22.00;58.80;;;;;;5048495;28;20456;-72
2022/06/08 09:59:10;;;;;;;3.30;1.52;;;21.90;59.00;;;;;;5052763;28;20490;-72
2022/06/08 10:01:43;;;;;;;3.72;1.40;;;21.80;59.60;;;;;;5053470;28;20475;-71
2022/06/08 10:04:26;;;;;;;3.63;1.50;;;21.60;60.10;;;;;;5052142;28;20423;-71
2022/06/08 10:07:02;;;;;;;3.60;1.60;;;21.40;58.90;;;;;;5034598;28;20518;-72
2022/06/08 10:09:34;;;;;;;5.45;1.58;;;21.30;58.80;;;;;;5043169;28;20787;-71
2022/06/08 10:12:12;;;;;;;2.83;1.50;;;21.20;60.20;;;;;;5044636;28;20501;-72
2022/06/08 10:14:44;;;;;;;5.00;1.40;;;21.20;59.10;;;;;;5053459;28;20463;-72
2022/06/08 10:17:17;;;;;;;2.88;1.30;;;21.30;59.30;;;;;;5039482;28;20428;-72
2022/06/08 10:19:54;;;;;;;2.92;1.23;;;21.40;58.80;;;;;;5053331;28;20530;-71
2022/06/08 10:22:28;;;;;;;2.70;1.40;;;21.40;57.50;;;;;;5050062;28;20452;-71
2022/06/08 10:24:59;;;;;;;4.00;1.47;;;21.30;56.70;;;;;;5040082;28;20502;-71
2022/06/08 10:27:31;;;;;;;2.90;1.30;;;21.30;56.10;;;;;;5052934;28;20416;-71
2022/06/08 10:30:07;;;;;;;4.10;1.40;;;21.30;56.70;;;;;;5046640;28;20839;-72
2022/06/08 10:32:39;;;;;;;3.97;1.70;;;21.30;56.80;;;;;;5040128;28;20499;-72
2022/06/08 10:35:22;;;;;;;4.57;1.30;;;21.30;56.90;;;;;;5046293;28;20418;-72
2022/06/08 10:37:51;;;;;;;2.58;1.70;;;21.40;56.60;;;;;;5054269;28;20470;-71
2022/06/08 10:40:21;;;;;;;3.30;2.63;;;21.40;56.90;;;;;;5058524;28;20423;-71
2022/06/08 10:42:50;;;;;;;5.38;2.30;;;21.40;57.60;;;;;;5064694;28;20518;-72
2022/06/08 10:45:45;;;;;;;3.03;1.30;;;21.40;57.80;;;;;;5047534;28;20433;-70
2022/06/08 10:48:46;;;;;;;3.03;1.52;;;21.20;56.30;;;;;;5046504;28;20423;-71
2022/06/08 10:51:39;;;;;;;4.32;1.30;;;21.10;56.50;;;;;;5040388;28;20421;-71
2022/06/08 10:57:51;;;;;;;3.58;1.40;;;20.60;58.00;;;;;;5064434;28;20501;-72
2022/06/08 11:00:29;;;;;;;3.95;1.63;;;20.50;59.30;;;;;;5003822;28;20435;-71
2022/06/08 11:03:02;;;;;;;3.03;1.50;;;20.50;60.50;;;;;;5042700;28;20480;-71
2022/06/08 11:05:34;;;;;;;5.47;1.77;;;20.50;60.70;;;;;;5048043;28;20471;-71
2022/06/08 11:08:18;;;;;;;3.97;1.80;;;20.40;61.00;;;;;;5046622;28;20416;-72
2022/06/08 11:11:09;;;;;;;3.15;1.50;;;20.10;63.10;;;;;;5058271;28;20435;-71
2022/06/08 11:13:39;;;;;;;3.67;1.88;;;19.50;69.60;;;;;;5058499;28;20435;-71
2022/06/08 11:16:16;;;;;;;3.13;1.80;;;18.90;71.10;;;;;;5043786;28;20437;-70
2022/06/08 11:18:47;;;;;;;3.00;2.00;;;18.40;74.30;;;;;;5040636;28;20488;-71
2022/06/08 11:21:30;;;;;;;7.65;3.10;;;18.00;78.70;;;;;;5063209;28;20886;-72
2022/06/08 11:24:02;;;;;;;5.25;2.55;;;17.70;83.70;;;;;;5040925;28;20454;-72
2022/06/08 11:26:49;;;;;;;4.50;2.30;;;17.40;84.10;;;;;;5038747;28;20585;-72
2022/06/08 11:29:39;;;;;;;6.30;2.70;;;17.30;87.40;;;;;;5029674;28;20429;-72
2022/06/08 11:32:20;;;;;;;4.72;2.70;;;17.10;87.20;;;;;;5043276;28;20421;-72
2022/06/08 11:35:02;;;;;;;3.58;2.50;;;17.10;90.30;;;;;;5040829;28;20445;-72
2022/06/08 11:37:40;;;;;;;6.32;2.45;;;17.10;87.90;;;;;;5042878;28;20813;-73
2022/06/08 11:40:13;;;;;;;5.38;2.63;;;17.00;87.60;;;;;;5053518;28;20486;-72
2022/06/08 11:42:50;;;;;;;5.60;2.65;;;17.00;89.40;;;;;;5045933;28;20418;-72
2022/06/08 11:45:20;;;;;;;4.50;2.58;;;17.00;87.20;;;;;;5036740;28;20447;-72
2022/06/08 11:47:54;;;;;;;3.60;2.40;;;16.90;87.50;;;;;;5055258;28;20407;-72
2022/06/08 11:50:23;;;;;;;4.28;2.90;;;17.00;87.30;;;;;;5059089;28;20445;-73
2022/06/08 11:52:58;;;;;;;4.53;3.97;;;17.00;88.90;;;;;;5061550;28;20799;-72
2022/06/08 11:55:26;;;;;;;4.30;2.90;;;17.10;89.20;;;;;;5042222;28;20432;-73
2022/06/08 11:58:00;;;;;;;6.10;3.20;;;17.20;88.10;;;;;;5057657;28;20435;-72
2022/06/08 12:00:32;;;;;;;7.18;3.80;;;17.20;87.90;;;;;;5038245;28;20433;-73
2022/06/08 12:03:04;;;;;;;5.80;3.20;;;17.30;89.70;;;;;;5039166;28;20434;-76
2022/06/08 12:05:34;;;;;;;4.50;2.58;;;17.30;88.10;;;;;;5035481;28;20464;-73
2022/06/08 12:08:08;;;;;;;5.32;2.90;;;17.20;88.00;;;;;;5036992;28;20433;-73
2022/06/08 12:10:36;;;;;;;4.50;3.40;;;17.20;89.30;;;;;;5066993;22;20501;-70
2022/06/08 12:13:12;;;;;;;4.07;2.40;;;17.20;90.30;;;;;;5063630;28;20427;-70
2022/06/08 12:15:46;;;;;;;4.13;2.70;;;17.30;88.30;;;;;;5052694;28;20886;-71
2022/06/08 12:18:38;;;;;;;3.90;2.50;;;17.30;88.60;;;;;;5029690;28;20505;-72
2022/06/08 12:21:22;;;;;;;3.03;2.00;;;17.30;88.50;;;;;;5031318;28;20447;-70
2022/06/08 12:24:20;;;;;;;4.63;2.70;;;17.20;87.00;;;;;;5031462;28;20431;-72
2022/06/08 12:26:57;;;;;;;3.08;2.20;;;17.20;90.50;;;;;;5042500;28;20560;-71
2022/06/08 12:29:32;;;;;;;3.67;2.20;;;17.30;90.30;;;;;;5038982;28;20435;-71
2022/06/08 12:32:16;;;;;;;3.50;2.00;;;17.20;87.80;;;;;;5039112;28;20933;-71
2022/06/08 12:34:46;;;;;;;3.50;2.28;;;17.10;88.00;;;;;;5039969;28;20434;-73
2022/06/08 12:37:42;;;;;;;4.60;3.03;;;17.10;87.20;;;;;;5039159;28;20433;-72
2022/06/08 12:40:32;;;;;;;5.88;2.88;;;17.00;90.10;;;;;;5036235;28;20459;-72
2022/06/08 12:43:17;;;;;;;4.57;3.40;;;17.10;90.80;;;;;;5052069;28;20428;-71
2022/06/08 12:46:04;;;;;;;3.67;2.50;;;17.20;91.50;;;;;;5041840;28;20423;-71
2022/06/08 12:48:44;;;;;;;4.00;2.58;;;17.20;89.90;;;;;;5043967;28;20416;-71
2022/06/08 12:51:42;;;;;;;3.40;2.10;;;17.20;90.70;;;;;;5035545;28;20722;-72
2022/06/08 12:54:18;;;;;;;3.40;1.90;;;17.30;88.30;;;;;;4989787;28;20915;-72
2022/06/08 12:56:48;;;;;;;4.20;1.58;;;17.20;89.50;;;;;;5025545;28;20445;-73
2022/06/08 12:59:16;;;;;;;3.30;2.00;;;17.10;81.80;;;;;;5037426;28;20584;-73
2022/06/08 13:01:44;;;;;;;4.35;2.22;;;17.00;85.50;;;;;;5052170;28;20451;-71
2022/06/08 13:04:14;;;;;;;4.00;2.13;;;17.00;88.40;;;;;;5032717;28;20443;-72
2022/06/08 13:06:41;;;;;;;3.10;1.90;;;17.00;88.20;;;;;;5032163;28;21008;-71
2022/06/08 13:09:13;;;;;;;2.80;1.90;;;17.00;87.20;;;;;;5035824;28;20426;-71
2022/06/08 13:11:42;;;;;;;4.10;2.80;;;17.00;88.30;;;;;;5018703;28;20427;-73
2022/06/08 13:14:16;;;;;;;5.55;2.80;;;17.10;89.20;;;;;;5022412;28;20493;-72
2022/06/08 13:16:45;;;;;;;3.80;2.40;;;17.10;89.70;;;;;;5038185;28;20434;-73
2022/06/08 13:19:14;;;;;;;3.37;2.40;;;17.10;88.10;;;;;;5057301;28;20489;-73
2022/06/08 13:21:41;;;;;;;4.75;3.00;;;17.10;87.50;;;;;;5027267;28;20431;-73
2022/06/08 13:24:09;;;;;;;3.33;2.72;;;17.10;88.30;;;;;;5036527;28;20508;-73
2022/06/08 13:26:38;;;;;;;4.53;2.42;;;17.10;89.70;;;;;;5040505;28;20451;-72